Time;durP1;ratioP1;P1;durP2;ratioP2;P2;SDS_P1;SDS_P2;PMS_P1;PMS_P2;Temp;Humidity;BMP_temperature;BMP_pressure;BME280_temperature;BME280_humidity;BME280_pressure;Samples;Min_cycle;Max_cycle;Signal;HPM_P1;HPM_P2
2023/09/23 00:01:57;;;;;;;3.05;2.35;;;14.00;99.90;;;;;;4174833;28;20518;-69
2023/09/23 00:03:58;;;;;;;3.45;2.20;;;14.00;99.90;;;;;;4179421;28;20080;-68
2023/09/23 00:05:59;;;;;;;2.85;2.20;;;14.00;99.90;;;;;;4193267;28;20029;-68
2023/09/23 00:08:00;;;;;;;2.50;2.20;;;14.00;99.90;;;;;;4192177;28;20089;-67
2023/09/23 00:10:08;;;;;;;2.13;1.90;;;14.10;99.90;;;;;;4188479;28;20413;-68
2023/09/23 00:12:08;;;;;;;3.17;2.40;;;14.10;99.90;;;;;;4185148;28;21819;-67
2023/09/23 00:14:10;;;;;;;4.65;2.55;;;14.20;99.90;;;;;;4184250;28;20029;-67
2023/09/23 00:16:11;;;;;;;4.18;2.85;;;14.20;99.90;;;;;;4177649;28;20039;-67
2023/09/23 00:18:17;;;;;;;3.45;2.15;;;14.10;99.90;;;;;;4176294;28;20554;-66
2023/09/23 00:20:18;;;;;;;2.97;2.13;;;14.10;99.90;;;;;;4182598;28;20052;-66
2023/09/23 00:22:18;;;;;;;3.08;2.22;;;14.10;99.90;;;;;;4172810;28;20026;-66
2023/09/23 00:24:19;;;;;;;2.13;1.77;;;14.10;99.90;;;;;;4173369;28;20344;-66
2023/09/23 00:26:22;;;;;;;2.67;2.17;;;14.20;99.90;;;;;;4192129;28;20029;-66
2023/09/23 00:28:25;;;;;;;2.28;1.98;;;14.20;99.90;;;;;;4192209;28;20036;-66
2023/09/23 00:30:27;;;;;;;1.95;1.67;;;14.20;99.90;;;;;;4188346;28;20116;-66
2023/09/23 00:32:27;;;;;;;4.30;1.90;;;14.20;99.90;;;;;;4180059;28;20036;-67
2023/09/23 00:34:29;;;;;;;1.70;1.60;;;14.20;99.90;;;;;;4180892;28;20091;-67
2023/09/23 00:36:30;;;;;;;2.72;1.92;;;14.20;99.90;;;;;;4177681;28;20041;-68
2023/09/23 00:38:32;;;;;;;2.25;1.73;;;14.20;99.90;;;;;;4177770;28;20033;-68
2023/09/23 00:40:32;;;;;;;2.40;1.50;;;14.10;99.90;;;;;;4180975;28;20045;-68
2023/09/23 00:42:33;;;;;;;2.63;1.80;;;14.10;99.90;;;;;;4183264;28;20036;-68
2023/09/23 00:44:34;;;;;;;1.80;1.42;;;14.20;99.90;;;;;;4189085;28;20036;-68
2023/09/23 00:46:36;;;;;;;3.15;1.40;;;14.20;99.90;;;;;;4190840;28;20040;-68
2023/09/23 00:48:38;;;;;;;1.73;1.25;;;14.10;99.90;;;;;;4188500;28;20413;-68
2023/09/23 00:50:39;;;;;;;2.20;1.52;;;14.10;99.90;;;;;;4182985;28;20043;-68
2023/09/23 00:52:40;;;;;;;1.33;1.10;;;14.20;99.90;;;;;;4176435;28;20061;-68
2023/09/23 00:54:42;;;;;;;1.23;0.90;;;14.10;99.90;;;;;;4174467;28;20041;-68
2023/09/23 00:56:43;;;;;;;1.17;1.00;;;14.10;99.90;;;;;;4171556;28;20044;-68
2023/09/23 00:58:44;;;;;;;1.35;1.17;;;14.10;99.90;;;;;;4164535;28;20029;-69
2023/09/23 01:00:48;;;;;;;1.58;1.40;;;14.10;99.90;;;;;;4181650;28;20036;-68
2023/09/23 01:02:49;;;;;;;2.92;1.80;;;14.10;99.90;;;;;;4180112;28;20036;-70
2023/09/23 01:04:50;;;;;;;3.67;2.67;;;14.10;99.90;;;;;;4185745;28;20413;-69
2023/09/23 01:06:51;;;;;;;8.73;5.38;;;14.10;99.90;;;;;;4173776;28;20037;-68
2023/09/23 01:08:54;;;;;;;8.48;5.88;;;14.10;99.90;;;;;;4173650;28;21727;-70
2023/09/23 01:10:55;;;;;;;9.05;6.68;;;14.10;99.90;;;;;;4168270;28;20021;-68
2023/09/23 01:12:56;;;;;;;12.20;8.38;;;14.10;99.90;;;;;;4172952;28;20032;-70
2023/09/23 01:15:04;;;;;;;13.23;9.18;;;14.10;99.90;;;;;;4168778;28;20029;-70
2023/09/23 01:17:09;;;;;;;16.38;10.90;;;14.00;99.90;;;;;;4171845;28;20437;-70
2023/09/23 01:19:14;;;;;;;15.93;10.65;;;14.00;99.90;;;;;;4177486;28;20102;-70
2023/09/23 01:21:15;;;;;;;18.67;11.73;;;14.10;99.90;;;;;;4183680;28;20032;-70
2023/09/23 01:23:16;;;;;;;18.73;11.93;;;14.00;99.90;;;;;;4182383;28;20053;-70
2023/09/23 01:25:19;;;;;;;20.17;12.27;;;14.00;99.90;;;;;;4175657;28;20024;-69
2023/09/23 01:27:21;;;;;;;17.00;11.30;;;14.00;99.90;;;;;;4182320;28;20037;-69
2023/09/23 01:29:23;;;;;;;18.35;12.57;;;14.00;99.90;;;;;;4179945;28;20050;-70
2023/09/23 01:31:29;;;;;;;21.50;12.85;;;14.00;99.90;;;;;;4178480;28;20371;-70
2023/09/23 01:33:29;;;;;;;20.33;13.73;;;14.00;99.90;;;;;;4191825;28;20041;-70
2023/09/23 01:35:31;;;;;;;21.27;14.18;;;14.00;99.90;;;;;;4169775;28;20041;-70
2023/09/23 01:37:32;;;;;;;18.83;13.00;;;13.90;99.90;;;;;;4177269;28;20037;-70
2023/09/23 01:39:33;;;;;;;20.25;13.52;;;14.00;99.90;;;;;;4166127;28;20121;-69
2023/09/23 01:41:37;;;;;;;18.10;12.25;;;13.90;99.90;;;;;;4178705;28;20554;-69
2023/09/23 01:43:38;;;;;;;18.58;12.43;;;14.00;99.90;;;;;;4172338;28;20037;-68
2023/09/23 01:45:39;;;;;;;18.35;12.10;;;13.90;99.90;;;;;;4178150;28;20044;-68
2023/09/23 01:47:43;;;;;;;18.25;12.27;;;13.90;99.90;;;;;;4181540;28;20033;-68
2023/09/23 01:49:44;;;;;;;15.70;10.98;;;13.90;99.90;;;;;;4176747;28;20027;-68
2023/09/23 01:51:46;;;;;;;18.20;11.90;;;13.90;99.90;;;;;;4175261;28;20136;-69
2023/09/23 01:53:47;;;;;;;15.68;10.20;;;13.90;99.90;;;;;;4178381;28;20033;-68
2023/09/23 01:55:47;;;;;;;15.48;10.05;;;13.90;99.90;;;;;;4171727;28;20470;-69
2023/09/23 01:57:48;;;;;;;17.42;11.45;;;13.90;99.90;;;;;;4182820;28;20426;-69
2023/09/23 01:59:49;;;;;;;16.75;10.50;;;13.90;99.90;;;;;;4178302;28;20032;-68
2023/09/23 02:01:49;;;;;;;17.08;10.95;;;13.90;99.90;;;;;;4171320;28;20483;-69
2023/09/23 02:03:51;;;;;;;16.73;10.85;;;13.90;99.90;;;;;;4174396;28;20029;-68
2023/09/23 02:05:52;;;;;;;16.40;9.97;;;13.80;99.90;;;;;;4189377;28;20116;-69
2023/09/23 02:07:53;;;;;;;14.00;8.55;;;13.80;99.90;;;;;;4179833;28;20252;-68
2023/09/23 02:09:54;;;;;;;14.88;8.93;;;13.80;99.90;;;;;;4186480;28;20033;-68
2023/09/23 02:11:55;;;;;;;13.38;7.78;;;13.70;99.90;;;;;;4180742;28;20030;-68
2023/09/23 02:13:55;;;;;;;12.63;7.65;;;13.70;99.90;;;;;;4173012;28;20026;-68
2023/09/23 02:15:57;;;;;;;10.05;6.85;;;13.70;99.90;;;;;;4185023;28;20039;-68
2023/09/23 02:17:58;;;;;;;10.52;6.32;;;13.70;99.90;;;;;;4170775;28;20866;-68
2023/09/23 02:19:59;;;;;;;9.10;6.22;;;13.70;99.90;;;;;;4171926;28;20040;-68
2023/09/23 02:22:05;;;;;;;10.05;5.53;;;13.70;99.90;;;;;;4174812;28;20036;-66
2023/09/23 02:24:06;;;;;;;8.18;5.22;;;13.60;99.90;;;;;;4171573;28;20179;-66
2023/09/23 02:26:07;;;;;;;6.75;4.45;;;13.60;99.90;;;;;;4174445;28;20029;-66
2023/09/23 02:28:10;;;;;;;9.25;4.93;;;13.60;99.90;;;;;;4184383;28;20051;-66
2023/09/23 02:30:11;;;;;;;5.53;4.10;;;13.70;99.90;;;;;;4182279;28;20033;-67
2023/09/23 02:32:12;;;;;;;8.40;4.95;;;13.60;99.90;;;;;;4176111;28;20089;-67
2023/09/23 02:34:16;;;;;;;6.95;4.30;;;13.60;99.90;;;;;;4173695;28;20076;-66
2023/09/23 02:36:16;;;;;;;5.10;3.95;;;13.60;99.90;;;;;;4177078;28;20029;-66
2023/09/23 02:38:18;;;;;;;6.72;4.70;;;13.60;99.90;;;;;;4186443;28;20386;-66
2023/09/23 02:40:20;;;;;;;4.97;3.63;;;13.60;99.90;;;;;;4181866;28;20436;-67
2023/09/23 02:42:21;;;;;;;5.05;3.67;;;13.60;99.90;;;;;;4174748;28;20029;-67
2023/09/23 02:44:27;;;;;;;5.22;3.60;;;13.60;99.90;;;;;;4174777;28;20041;-66
2023/09/23 02:46:27;;;;;;;5.40;3.33;;;13.50;99.90;;;;;;4181977;28;20048;-67
2023/09/23 02:48:28;;;;;;;4.57;3.40;;;13.60;99.90;;;;;;4187059;28;20494;-67
2023/09/23 02:50:30;;;;;;;5.82;3.45;;;13.60;99.90;;;;;;4182451;28;20076;-67
2023/09/23 02:52:30;;;;;;;4.15;2.75;;;13.50;99.90;;;;;;4180426;28;20104;-66
2023/09/23 02:54:31;;;;;;;6.13;2.53;;;13.50;99.90;;;;;;4170733;28;20033;-68
2023/09/23 02:56:34;;;;;;;4.78;2.45;;;13.40;99.90;;;;;;4174927;28;20025;-66
2023/09/23 02:58:34;;;;;;;;;;;13.50;99.90;;;;;;4184170;28;20029;-66
2023/09/23 03:00:37;;;;;;;5.10;2.97;;;13.40;99.90;;;;;;4185156;28;19915;-66
2023/09/23 03:02:38;;;;;;;9.75;2.72;;;13.50;99.90;;;;;;4182927;28;20052;-67
2023/09/23 03:04:42;;;;;;;6.40;2.90;;;13.40;99.90;;;;;;4190281;28;20493;-66
2023/09/23 03:06:49;;;;;;;4.70;2.67;;;13.50;99.90;;;;;;4176667;28;20033;-66
2023/09/23 03:08:53;;;;;;;5.80;2.35;;;13.50;99.90;;;;;;4179770;28;20052;-66
2023/09/23 03:10:54;;;;;;;4.43;2.63;;;13.50;99.90;;;;;;4183576;28;20524;-67
2023/09/23 03:13:02;;;;;;;5.05;2.70;;;13.50;99.90;;;;;;4172963;28;20033;-67
2023/09/23 03:15:09;;;;;;;3.53;2.35;;;13.50;99.90;;;;;;4168565;28;20116;-67
2023/09/23 03:17:21;;;;;;;4.15;2.28;;;13.50;99.90;;;;;;4181021;28;20127;-67
2023/09/23 03:19:25;;;;;;;4.53;2.05;;;13.50;99.90;;;;;;4176486;28;20556;-67
2023/09/23 03:21:25;;;;;;;3.63;2.00;;;13.60;99.90;;;;;;4181539;28;20029;-66
2023/09/23 03:23:26;;;;;;;3.80;2.17;;;13.50;99.90;;;;;;4176910;28;20048;-66
2023/09/23 03:25:27;;;;;;;3.45;2.17;;;13.60;99.90;;;;;;4187341;28;20033;-67
2023/09/23 03:27:28;;;;;;;2.72;1.60;;;13.60;99.90;;;;;;4182154;28;20037;-68
2023/09/23 03:29:30;;;;;;;6.75;2.33;;;13.70;99.90;;;;;;4184032;28;20039;-67
2023/09/23 03:31:30;;;;;;;2.27;1.80;;;13.60;99.90;;;;;;4181493;28;20040;-67
2023/09/23 03:33:31;;;;;;;3.45;1.67;;;13.60;99.90;;;;;;4186603;28;20256;-68
2023/09/23 03:35:35;;;;;;;4.20;1.80;;;13.60;99.90;;;;;;4184530;28;20543;-66
2023/09/23 03:37:36;;;;;;;3.00;1.50;;;13.40;99.90;;;;;;4179242;28;20065;-66
2023/09/23 03:39:37;;;;;;;5.03;1.70;;;13.50;99.90;;;;;;4171220;28;20044;-66
2023/09/23 03:41:38;;;;;;;4.85;2.17;;;13.60;99.90;;;;;;4188721;28;20039;-66
2023/09/23 03:43:39;;;;;;;4.32;1.80;;;13.50;99.90;;;;;;4173605;28;20029;-66
2023/09/23 03:45:40;;;;;;;3.67;1.48;;;13.50;99.90;;;;;;4175019;28;20045;-66
2023/09/23 03:47:40;;;;;;;4.28;1.92;;;13.50;99.90;;;;;;4185208;28;20108;-66
2023/09/23 03:49:41;;;;;;;5.07;1.98;;;13.50;99.90;;;;;;4173354;28;20109;-66
2023/09/23 03:51:42;;;;;;;3.67;1.60;;;13.50;99.90;;;;;;4167149;28;20025;-66
2023/09/23 03:53:48;;;;;;;2.28;1.38;;;13.50;99.90;;;;;;4165740;28;20022;-66
2023/09/23 03:55:52;;;;;;;5.47;1.70;;;13.50;99.90;;;;;;4184047;28;20031;-66
2023/09/23 03:57:54;;;;;;;4.38;1.27;;;13.40;99.90;;;;;;4187064;28;20029;-67
2023/09/23 03:59:54;;;;;;;2.47;1.30;;;13.40;99.90;;;;;;4186447;28;20037;-67
2023/09/23 04:01:55;;;;;;;5.00;1.80;;;13.40;99.90;;;;;;4184946;28;20029;-67
2023/09/23 04:03:56;;;;;;;5.53;1.60;;;13.40;99.90;;;;;;4192200;28;20107;-70
2023/09/23 04:05:57;;;;;;;3.72;1.55;;;13.40;99.90;;;;;;4189884;28;20031;-71
2023/09/23 04:07:58;;;;;;;2.90;1.30;;;13.30;99.90;;;;;;4191593;28;20056;-70
2023/09/23 04:09:59;;;;;;;5.25;1.40;;;13.30;99.90;;;;;;4181909;28;20029;-71
2023/09/23 04:12:00;;;;;;;3.20;1.23;;;13.30;99.90;;;;;;4188961;28;20509;-71
2023/09/23 04:14:01;;;;;;;4.50;1.17;;;13.30;99.90;;;;;;4186673;28;20033;-71
2023/09/23 04:16:02;;;;;;;2.00;1.30;;;13.40;99.90;;;;;;4177194;28;20044;-72
2023/09/23 04:18:03;;;;;;;11.02;2.15;;;13.30;99.90;;;;;;4175731;28;20114;-72
2023/09/23 04:20:10;;;;;;;5.13;1.30;;;13.30;99.90;;;;;;4168356;28;20135;-71
2023/09/23 04:22:11;;;;;;;4.88;1.50;;;13.20;99.90;;;;;;4165140;28;20032;-72
2023/09/23 04:24:11;;;;;;;4.03;1.58;;;13.20;99.90;;;;;;4167099;28;20434;-72
2023/09/23 04:26:12;;;;;;;2.05;1.00;;;13.20;99.90;;;;;;4183280;28;20424;-72
2023/09/23 04:28:13;;;;;;;3.78;1.35;;;13.20;99.90;;;;;;4178743;28;20179;-72
2023/09/23 04:30:15;;;;;;;4.68;1.15;;;13.20;99.90;;;;;;4180251;28;20048;-71
2023/09/23 04:32:15;;;;;;;3.55;1.30;;;13.20;99.90;;;;;;4188985;28;20146;-72
2023/09/23 04:34:17;;;;;;;2.08;1.10;;;13.20;99.90;;;;;;4186251;28;20041;-70
2023/09/23 04:36:17;;;;;;;5.03;1.80;;;13.30;99.90;;;;;;4187166;28;20138;-72
2023/09/23 04:38:18;;;;;;;2.70;1.38;;;13.30;99.90;;;;;;4173693;28;20111;-72
2023/09/23 04:40:19;;;;;;;3.35;1.60;;;13.30;99.90;;;;;;4168632;28;20651;-72
2023/09/23 04:42:21;;;;;;;3.03;1.30;;;13.20;99.90;;;;;;4179899;28;20405;-70
2023/09/23 04:44:21;;;;;;;3.97;1.58;;;13.20;99.90;;;;;;4177928;28;20582;-70
2023/09/23 04:46:22;;;;;;;6.50;1.80;;;13.20;99.90;;;;;;4175768;28;20061;-70
2023/09/23 04:48:24;;;;;;;3.35;1.25;;;13.20;99.90;;;;;;4162170;28;20045;-70
2023/09/23 04:50:28;;;;;;;4.55;1.52;;;13.20;99.90;;;;;;4182630;28;20047;-70
2023/09/23 04:52:28;;;;;;;3.50;1.58;;;13.20;99.90;;;;;;4183127;28;20029;-66
2023/09/23 04:54:29;;;;;;;4.55;1.48;;;13.20;99.90;;;;;;4173626;28;20086;-66
2023/09/23 04:56:29;;;;;;;4.38;1.45;;;13.10;99.90;;;;;;4177609;28;20035;-66
2023/09/23 04:58:31;;;;;;;2.40;1.23;;;13.20;99.90;;;;;;4176564;28;20037;-67
2023/09/23 05:00:36;;;;;;;6.43;1.52;;;13.20;99.90;;;;;;4180809;28;20146;-66
2023/09/23 05:02:37;;;;;;;2.72;1.15;;;13.20;99.90;;;;;;4180148;28;20040;-67
2023/09/23 05:04:38;;;;;;;4.80;1.33;;;13.20;99.90;;;;;;4163037;28;20414;-67
2023/09/23 05:06:38;;;;;;;2.03;1.08;;;13.10;99.90;;;;;;4171344;28;20030;-66
2023/09/23 05:08:39;;;;;;;3.58;1.58;;;13.10;99.90;;;;;;4172142;28;20097;-67
2023/09/23 05:10:41;;;;;;;4.22;1.60;;;13.10;99.90;;;;;;4173536;28;20041;-67
2023/09/23 05:12:44;;;;;;;3.33;1.70;;;13.20;99.90;;;;;;4171621;28;20049;-67
2023/09/23 05:14:44;;;;;;;3.05;1.30;;;13.20;99.90;;;;;;4190995;28;20677;-67
2023/09/23 05:16:45;;;;;;;5.63;1.70;;;13.10;99.90;;;;;;4186642;28;20035;-68
2023/09/23 05:18:46;;;;;;;2.40;1.10;;;13.10;99.90;;;;;;4187294;28;20367;-68
2023/09/23 05:20:50;;;;;;;2.28;1.00;;;13.10;99.90;;;;;;4178492;28;20385;-68
2023/09/23 05:22:50;;;;;;;3.75;1.40;;;13.20;99.90;;;;;;4182498;28;20033;-69
2023/09/23 05:24:57;;;;;;;3.38;1.35;;;13.20;99.90;;;;;;4178923;28;20045;-68
2023/09/23 05:26:59;;;;;;;3.42;1.25;;;13.20;99.90;;;;;;4178589;28;20387;-68
2023/09/23 05:29:00;;;;;;;2.60;1.33;;;13.20;99.90;;;;;;4181428;28;20093;-68
2023/09/23 05:31:01;;;;;;;2.05;1.40;;;13.20;99.90;;;;;;4180488;28;20532;-69
2023/09/23 05:33:02;;;;;;;3.15;1.33;;;13.20;99.90;;;;;;4186944;28;20465;-69
2023/09/23 05:35:05;;;;;;;4.20;1.30;;;13.20;99.90;;;;;;4178362;28;20106;-69
2023/09/23 05:37:12;;;;;;;3.78;1.45;;;13.20;99.90;;;;;;4179357;28;20025;-69
2023/09/23 05:39:18;;;;;;;3.42;1.73;;;13.20;99.90;;;;;;4170836;28;20040;-68
2023/09/23 05:41:23;;;;;;;3.35;1.40;;;13.20;99.90;;;;;;4165480;28;20572;-67
2023/09/23 05:43:24;;;;;;;2.88;1.40;;;13.20;99.90;;;;;;4181546;28;20093;-68
2023/09/23 05:45:25;;;;;;;2.58;1.52;;;13.20;99.90;;;;;;4172232;28;20748;-69
2023/09/23 05:47:26;;;;;;;3.63;1.40;;;13.20;99.90;;;;;;4173697;28;20040;-69
2023/09/23 05:49:26;;;;;;;3.70;1.60;;;13.20;99.90;;;;;;4188448;28;20040;-70
2023/09/23 05:51:27;;;;;;;1.67;1.23;;;13.20;99.90;;;;;;4181680;28;20029;-69
2023/09/23 05:53:28;;;;;;;3.03;1.70;;;13.20;99.90;;;;;;4175549;28;20386;-70
2023/09/23 05:55:31;;;;;;;5.22;1.90;;;13.20;99.90;;;;;;4167339;28;20045;-70
2023/09/23 05:57:43;;;;;;;4.15;1.50;;;13.20;99.90;;;;;;4174710;28;20044;-71
2023/09/23 05:59:43;;;;;;;3.13;1.65;;;13.20;99.90;;;;;;4179659;28;20090;-70
2023/09/23 06:01:44;;;;;;;3.40;1.48;;;13.10;99.90;;;;;;4178756;28;20074;-70
2023/09/23 06:03:45;;;;;;;7.68;2.00;;;13.10;99.90;;;;;;4186791;28;20886;-71
2023/09/23 06:05:45;;;;;;;2.60;1.20;;;13.10;99.90;;;;;;4173199;28;20390;-71
2023/09/23 06:07:46;;;;;;;6.93;1.75;;;13.20;99.90;;;;;;4182066;28;20077;-70
2023/09/23 06:09:47;;;;;;;4.57;1.67;;;13.20;99.90;;;;;;4177280;28;20029;-70
2023/09/23 06:11:48;;;;;;;2.25;1.10;;;13.10;99.90;;;;;;4177346;28;20472;-71
2023/09/23 06:13:49;;;;;;;4.15;1.40;;;13.20;99.90;;;;;;4186076;28;20126;-70
2023/09/23 06:15:49;;;;;;;2.30;1.25;;;13.20;99.90;;;;;;4180943;28;20033;-70
2023/09/23 06:17:50;;;;;;;3.97;1.40;;;13.20;99.90;;;;;;4182009;28;20083;-70
2023/09/23 06:19:51;;;;;;;2.42;1.30;;;13.30;99.90;;;;;;4173706;28;20036;-70
2023/09/23 06:21:54;;;;;;;2.72;1.40;;;13.20;99.90;;;;;;4176292;28;20028;-71
2023/09/23 06:23:54;;;;;;;3.80;1.75;;;13.30;99.90;;;;;;4181725;28;20110;-68
2023/09/23 06:25:57;;;;;;;2.72;1.45;;;13.40;99.90;;;;;;4181798;28;20025;-66
2023/09/23 06:27:57;;;;;;;;;;;13.40;99.90;;;;;;4181301;28;20029;-67
2023/09/23 06:29:58;;;;;;;4.90;1.90;;;13.40;99.90;;;;;;4176509;28;19967;-67
2023/09/23 06:31:59;;;;;;;4.25;2.17;;;13.50;99.90;;;;;;4182909;28;20104;-67
2023/09/23 06:34:00;;;;;;;3.58;1.70;;;13.60;99.90;;;;;;4175601;28;20028;-67
2023/09/23 06:36:05;;;;;;;3.85;1.60;;;13.60;99.90;;;;;;4182086;28;20041;-68
2023/09/23 06:38:06;;;;;;;3.60;1.35;;;13.70;99.90;;;;;;4190339;28;20028;-67
2023/09/23 06:40:07;;;;;;;6.70;1.75;;;13.80;99.90;;;;;;4185719;28;20056;-67
2023/09/23 06:42:07;;;;;;;3.35;1.67;;;13.80;99.90;;;;;;4183617;28;20142;-67
2023/09/23 06:44:08;;;;;;;3.55;1.67;;;13.90;99.90;;;;;;4184232;28;20048;-67
2023/09/23 06:46:09;;;;;;;4.65;1.70;;;13.90;99.90;;;;;;4180780;28;20094;-67
2023/09/23 06:48:09;;;;;;;4.32;1.45;;;13.90;99.90;;;;;;4186073;28;20041;-68
2023/09/23 06:50:10;;;;;;;4.35;1.80;;;14.00;99.90;;;;;;4170429;28;20474;-67
2023/09/23 06:52:11;;;;;;;5.78;1.60;;;13.90;99.90;;;;;;4174358;28;20031;-67
2023/09/23 06:54:12;;;;;;;5.15;1.63;;;14.00;99.90;;;;;;4162515;28;20033;-67
2023/09/23 06:56:12;;;;;;;3.35;1.55;;;14.00;99.90;;;;;;4189927;28;20128;-67
2023/09/23 06:58:13;;;;;;;4.22;1.55;;;14.00;99.90;;;;;;4186677;28;20034;-66
2023/09/23 07:00:14;;;;;;;7.57;2.13;;;14.20;99.90;;;;;;4178334;28;20041;-68
2023/09/23 07:02:15;;;;;;;3.70;1.30;;;14.30;99.90;;;;;;4188519;28;20513;-67
2023/09/23 07:04:15;;;;;;;4.70;1.58;;;14.30;99.90;;;;;;4187435;28;20124;-65
2023/09/23 07:06:16;;;;;;;3.85;1.42;;;14.30;99.90;;;;;;4183163;28;20028;-66
2023/09/23 07:08:17;;;;;;;5.15;1.88;;;14.40;99.90;;;;;;4189818;28;20112;-66
2023/09/23 07:10:17;;;;;;;2.35;1.27;;;14.30;99.90;;;;;;4174348;28;20056;-65
2023/09/23 07:12:18;;;;;;;2.83;1.50;;;14.40;99.90;;;;;;4168563;28;20029;-66
2023/09/23 07:14:18;;;;;;;5.85;1.90;;;14.40;99.90;;;;;;4180841;28;20033;-65
2023/09/23 07:16:19;;;;;;;3.75;1.70;;;14.40;99.90;;;;;;4182581;28;20682;-66
2023/09/23 07:18:20;;;;;;;3.10;1.52;;;14.50;99.90;;;;;;4188970;28;20097;-66
2023/09/23 07:20:20;;;;;;;3.53;1.65;;;14.50;99.90;;;;;;4186567;28;20037;-66
2023/09/23 07:22:21;;;;;;;3.63;1.80;;;14.50;99.90;;;;;;4185197;28;20024;-66
2023/09/23 07:24:26;;;;;;;5.70;1.80;;;14.50;99.90;;;;;;4168715;28;20473;-67
2023/09/23 07:26:26;;;;;;;4.80;2.10;;;14.50;99.90;;;;;;4177369;28;20099;-65
2023/09/23 07:28:27;;;;;;;4.38;1.90;;;14.30;99.90;;;;;;4183571;28;20036;-65
2023/09/23 07:30:28;;;;;;;3.58;1.80;;;14.40;99.90;;;;;;4186698;28;20040;-65
2023/09/23 07:32:28;;;;;;;3.10;1.52;;;14.50;99.90;;;;;;4187351;28;20037;-72
2023/09/23 07:34:29;;;;;;;3.95;1.50;;;14.40;99.90;;;;;;4175517;28;20098;-72
2023/09/23 07:36:29;;;;;;;7.22;2.20;;;14.50;99.90;;;;;;4178258;28;20063;-72
2023/09/23 07:38:30;;;;;;;5.28;1.90;;;14.50;99.90;;;;;;4172931;28;20459;-69
2023/09/23 07:40:31;;;;;;;5.05;1.77;;;14.50;99.90;;;;;;4171752;28;20990;-71
2023/09/23 07:42:32;;;;;;;3.63;1.70;;;14.60;99.90;;;;;;4192247;28;20155;-72
2023/09/23 07:44:33;;;;;;;8.18;1.92;;;14.70;99.90;;;;;;4186352;28;20115;-72
2023/09/23 07:46:34;;;;;;;5.20;1.90;;;14.70;99.90;;;;;;4175766;28;20094;-72
2023/09/23 07:48:35;;;;;;;4.60;1.75;;;14.70;99.90;;;;;;4168257;28;20029;-72
2023/09/23 07:50:35;;;;;;;6.40;1.80;;;14.60;99.90;;;;;;4158334;28;20395;-72
2023/09/23 07:52:36;;;;;;;5.88;2.00;;;14.70;99.90;;;;;;4186695;28;20063;-71
2023/09/23 07:54:38;;;;;;;3.85;1.75;;;14.70;99.90;;;;;;4181312;28;20040;-72
2023/09/23 07:56:39;;;;;;;4.23;1.90;;;14.70;99.90;;;;;;4176089;28;20083;-72
2023/09/23 07:58:39;;;;;;;3.45;1.60;;;14.70;99.90;;;;;;4170969;28;20387;-72
2023/09/23 08:00:40;;;;;;;4.82;1.83;;;14.80;99.90;;;;;;4161531;28;20136;-72
2023/09/23 08:02:41;;;;;;;4.72;1.83;;;14.80;99.90;;;;;;4175764;28;20063;-72
2023/09/23 08:04:42;;;;;;;8.13;2.00;;;14.80;99.90;;;;;;4182920;28;20033;-71
2023/09/23 08:06:43;;;;;;;3.30;1.90;;;14.70;99.90;;;;;;4179833;28;20029;-72
2023/09/23 08:08:44;;;;;;;8.82;2.30;;;14.80;99.90;;;;;;4177663;28;20037;-72
2023/09/23 08:10:44;;;;;;;6.20;2.00;;;14.80;99.90;;;;;;4182793;28;20033;-73
2023/09/23 08:12:45;;;;;;;4.97;1.50;;;14.80;99.90;;;;;;4180250;28;20086;-68
2023/09/23 08:14:46;;;;;;;7.53;2.03;;;14.90;99.90;;;;;;4170355;28;20389;-68
2023/09/23 08:16:48;;;;;;;5.85;1.80;;;14.90;99.90;;;;;;4167922;28;20033;-68
2023/09/23 08:18:49;;;;;;;;;;;14.90;99.90;;;;;;4175729;28;20432;-68
2023/09/23 08:20:59;;;;;;;4.68;2.03;;;15.00;99.90;;;;;;4178974;28;19917;-68
2023/09/23 08:23:00;;;;;;;3.53;1.60;;;15.00;99.90;;;;;;4182252;28;20077;-70
2023/09/23 08:25:01;;;;;;;2.28;1.40;;;15.10;99.90;;;;;;4176472;28;20142;-68
2023/09/23 08:27:04;;;;;;;3.53;1.77;;;15.20;99.90;;;;;;4172654;28;20047;-68
2023/09/23 08:29:05;;;;;;;3.28;1.65;;;15.40;99.90;;;;;;4177137;28;20041;-68
2023/09/23 08:31:05;;;;;;;4.45;1.70;;;15.50;99.90;;;;;;4180138;28;20108;-68
2023/09/23 08:33:07;;;;;;;3.72;1.55;;;15.50;99.90;;;;;;4176014;28;20522;-68
2023/09/23 08:35:08;;;;;;;6.45;1.85;;;15.70;99.90;;;;;;4173799;28;20029;-68
2023/09/23 08:37:09;;;;;;;4.25;1.63;;;15.70;99.90;;;;;;4175981;28;20079;-69
2023/09/23 08:39:09;;;;;;;3.35;1.58;;;15.80;99.90;;;;;;4180181;28;20107;-68
2023/09/23 08:41:12;;;;;;;2.25;1.45;;;15.90;99.90;;;;;;4178072;28;20036;-68
2023/09/23 08:43:14;;;;;;;4.05;1.70;;;16.00;99.90;;;;;;4174778;28;20057;-73
2023/09/23 08:45:16;;;;;;;12.85;2.20;;;16.10;99.90;;;;;;4175773;28;20805;-72
2023/09/23 08:47:18;;;;;;;2.70;1.48;;;16.10;99.90;;;;;;4175095;28;20041;-72
2023/09/23 08:49:23;;;;;;;3.85;1.70;;;16.20;99.90;;;;;;4176204;28;20582;-72
2023/09/23 08:51:27;;;;;;;3.55;1.60;;;16.30;99.90;;;;;;4173008;28;20045;-72
2023/09/23 08:53:31;;;;;;;3.90;1.73;;;16.40;99.90;;;;;;4174672;28;20470;-72
2023/09/23 08:55:31;;;;;;;4.32;1.83;;;16.40;99.90;;;;;;4177719;28;20131;-69
2023/09/23 08:57:33;;;;;;;7.40;2.90;;;16.40;99.90;;;;;;4174783;28;20506;-67
2023/09/23 08:59:34;;;;;;;6.50;1.88;;;16.50;99.90;;;;;;4176893;28;20029;-68
2023/09/23 09:01:41;;;;;;;4.30;1.90;;;16.60;99.90;;;;;;4176186;28;20045;-67
2023/09/23 09:03:42;;;;;;;5.57;1.75;;;16.70;99.90;;;;;;4175999;28;20500;-68
2023/09/23 09:05:43;;;;;;;6.93;2.28;;;16.80;99.90;;;;;;4174864;28;20044;-68
2023/09/23 09:07:44;;;;;;;5.97;2.25;;;16.80;99.90;;;;;;4174177;28;20040;-68
2023/09/23 09:09:45;;;;;;;10.05;2.40;;;16.80;99.90;;;;;;4178775;28;20036;-67
2023/09/23 09:11:50;;;;;;;6.25;2.20;;;16.90;99.90;;;;;;4174988;28;20037;-67
2023/09/23 09:13:51;;;;;;;7.90;2.28;;;16.90;99.90;;;;;;4176228;28;20470;-66
2023/09/23 09:15:52;;;;;;;5.72;2.08;;;16.90;99.90;;;;;;4169095;28;20048;-67
2023/09/23 09:17:53;;;;;;;6.78;2.28;;;16.90;99.90;;;;;;4182243;28;20695;-67
2023/09/23 09:19:53;;;;;;;2.95;1.48;;;17.00;99.90;;;;;;4173030;28;21050;-68
2023/09/23 09:21:57;;;;;;;6.38;2.13;;;17.10;99.90;;;;;;4173423;28;20033;-67
2023/09/23 09:23:58;;;;;;;10.93;2.60;;;17.20;99.90;;;;;;4178553;28;20548;-69
2023/09/23 09:25:59;;;;;;;3.85;1.85;;;17.20;99.90;;;;;;4173570;28;20032;-70
2023/09/23 09:28:00;;;;;;;5.00;2.13;;;17.20;99.90;;;;;;4173941;28;20056;-69
2023/09/23 09:30:01;;;;;;;4.53;1.85;;;17.10;99.90;;;;;;4177085;28;20036;-69
2023/09/23 09:32:02;;;;;;;4.35;1.83;;;17.10;99.90;;;;;;4171892;28;20084;-69
2023/09/23 09:34:05;;;;;;;4.63;1.95;;;17.10;99.90;;;;;;4175553;28;20037;-69
2023/09/23 09:36:07;;;;;;;;;;;17.00;99.90;;;;;;4175669;28;20143;-68
2023/09/23 09:38:10;;;;;;;6.55;1.90;;;17.10;99.90;;;;;;4185139;28;19919;-69
2023/09/23 09:40:23;;;;;;;3.50;1.58;;;17.10;99.90;;;;;;4147211;28;20033;-69
2023/09/23 09:42:30;;;;;;;;;;;17.10;99.90;;;;;;4158466;28;20044;-69
2023/09/23 09:44:33;;;;;;;11.23;2.08;;;16.90;99.90;;;;;;4161006;28;19913;-69
2023/09/23 09:46:35;;;;;;;5.18;1.67;;;17.00;99.90;;;;;;4162622;28;20037;-68
2023/09/23 09:48:42;;;;;;;3.92;1.23;;;17.10;99.90;;;;;;4159986;28;20254;-69
2023/09/23 09:50:45;;;;;;;4.07;1.25;;;17.00;99.90;;;;;;4180001;28;20021;-69
2023/09/23 09:52:46;;;;;;;3.75;1.60;;;17.00;99.90;;;;;;4169545;28;20037;-71
2023/09/23 09:54:47;;;;;;;4.90;1.52;;;17.10;99.90;;;;;;4174346;28;20056;-71
2023/09/23 09:56:51;;;;;;;5.20;1.92;;;17.20;99.90;;;;;;4175956;28;20078;-72
2023/09/23 09:58:56;;;;;;;4.05;1.52;;;17.30;99.90;;;;;;4175890;28;20159;-72
2023/09/23 10:00:57;;;;;;;3.20;1.40;;;17.40;99.90;;;;;;4179298;28;20063;-72
2023/09/23 10:03:06;;;;;;;6.38;1.67;;;17.50;99.90;;;;;;4171888;28;20041;-71
2023/09/23 10:05:07;;;;;;;4.00;1.70;;;17.60;99.90;;;;;;4178416;28;20033;-69
2023/09/23 10:07:08;;;;;;;2.75;1.25;;;17.60;99.90;;;;;;4181934;28;20657;-72
2023/09/23 10:09:17;;;;;;;6.45;2.08;;;17.50;99.90;;;;;;4183123;28;20044;-72
2023/09/23 10:11:36;;;;;;;4.75;1.40;;;17.60;99.90;;;;;;4180350;28;20524;-72
2023/09/23 10:13:37;;;;;;;3.75;1.30;;;17.50;99.90;;;;;;4182442;28;20044;-72
2023/09/23 10:15:40;;;;;;;3.75;1.65;;;17.60;99.90;;;;;;4188531;28;21577;-72
2023/09/23 10:17:43;;;;;;;4.85;1.50;;;17.40;99.90;;;;;;4183950;28;20032;-72
2023/09/23 10:19:49;;;;;;;2.28;1.08;;;17.40;99.90;;;;;;4180506;28;20040;-72
2023/09/23 10:21:49;;;;;;;3.95;1.42;;;17.40;99.90;;;;;;4176852;28;20021;-72
2023/09/23 10:23:54;;;;;;;3.17;1.20;;;17.40;99.90;;;;;;4181317;28;20455;-72
2023/09/23 10:25:55;;;;;;;4.70;1.45;;;17.40;99.90;;;;;;4172104;28;20029;-71
2023/09/23 10:27:57;;;;;;;3.55;1.55;;;17.40;99.90;;;;;;4177956;28;20039;-72
2023/09/23 10:29:59;;;;;;;3.20;1.30;;;17.40;99.90;;;;;;4178518;28;20033;-72
2023/09/23 10:32:16;;;;;;;2.08;1.23;;;17.40;99.90;;;;;;4173994;28;20629;-72
2023/09/23 10:34:16;;;;;;;5.18;1.50;;;17.50;99.90;;;;;;4176699;28;20068;-67